Time;durP1;ratioP1;P1;durP2;ratioP2;P2;SDS_P1;SDS_P2;PMS_P1;PMS_P2;Temp;Humidity;BMP_temperature;BMP_pressure;BME280_temperature;BME280_humidity;BME280_pressure;Samples;Min_cycle;Max_cycle;Signal;HPM_P1;HPM_P2
2021/08/21 00:00:45;;;;;;;4.13;3.83;;;;;;;;;;5114858;28;20505;-69
2021/08/21 00:03:10;;;;;;;3.45;3.22;;;;;;;;;;5114761;28;20477;-67
2021/08/21 00:05:37;;;;;;;4.60;3.40;;;;;;;;;;5114734;28;20059;-68
2021/08/21 00:08:03;;;;;;;3.60;3.30;;;;;;;;;;5096638;28;20462;-64
2021/08/21 00:10:29;;;;;;;4.07;3.22;;;;;;;;;;5114803;28;20035;-64
2021/08/21 00:12:54;;;;;;;3.60;3.30;;;;;;;;;;5114977;28;20019;-64
2021/08/21 00:15:20;;;;;;;3.85;3.55;;;;;;;;;;5114912;28;20039;-63
2021/08/21 00:17:46;;;;;;;3.58;3.33;;;;;;;;;;5114211;28;20030;-63
2021/08/21 00:20:12;;;;;;;3.63;3.33;;;;;;;;;;5096448;28;20071;-63
2021/08/21 00:22:37;;;;;;;5.55;3.35;;;;;;;;;;5114319;28;20036;-63
2021/08/21 00:25:03;;;;;;;3.53;3.22;;;;;;;;;;5114532;28;20417;-63
2021/08/21 00:27:29;;;;;;;2.97;2.78;;;;;;;;;;5114081;28;20100;-63
2021/08/21 00:29:54;;;;;;;6.10;3.40;;;;;;;;;;5096654;28;20092;-63
2021/08/21 00:32:20;;;;;;;3.38;3.08;;;;;;;;;;5114608;28;20082;-63
2021/08/21 00:34:45;;;;;;;3.42;3.17;;;;;;;;;;5114641;28;20035;-63
2021/08/21 00:37:11;;;;;;;3.53;3.22;;;;;;;;;;5114192;28;20020;-63
2021/08/21 00:39:37;;;;;;;3.33;3.13;;;;;;;;;;5095673;28;20470;-63
2021/08/21 00:42:03;;;;;;;3.47;3.17;;;;;;;;;;5114061;28;20031;-63
2021/08/21 00:44:30;;;;;;;3.50;2.83;;;;;;;;;;5114163;28;20070;-63
2021/08/21 00:46:59;;;;;;;3.25;2.90;;;;;;;;;;5114265;28;20484;-63
2021/08/21 00:49:25;;;;;;;3.72;3.42;;;;;;;;;;5095683;28;20035;-63
2021/08/21 00:51:50;;;;;;;4.65;4.25;;;;;;;;;;5078700;28;20054;-63
2021/08/21 00:54:16;;;;;;;4.47;4.07;;;;;;;;;;5113822;28;20047;-63
2021/08/21 00:56:41;;;;;;;4.72;4.22;;;;;;;;;;5113989;28;20036;-63
2021/08/21 00:59:08;;;;;;;5.15;4.70;;;;;;;;;;5095903;28;20034;-63
2021/08/21 01:01:33;;;;;;;6.15;4.85;;;;;;;;;;5114030;28;20030;-63
2021/08/21 01:03:59;;;;;;;5.65;5.07;;;;;;;;;;5095354;28;20036;-63
2021/08/21 01:06:24;;;;;;;5.72;5.13;;;;;;;;;;5095645;28;20038;-63
2021/08/21 01:08:51;;;;;;;6.03;4.95;;;;;;;;;;5095552;28;20031;-63
2021/08/21 01:11:17;;;;;;;9.85;7.53;;;;;;;;;;5095521;28;20026;-63
2021/08/21 01:13:42;;;;;;;10.02;7.45;;;;;;;;;;5095961;28;20031;-63
2021/08/21 01:16:08;;;;;;;7.63;6.93;;;;;;;;;;5095633;28;20034;-64
2021/08/21 01:18:34;;;;;;;6.50;5.85;;;;;;;;;;5095675;28;20040;-64
2021/08/21 01:21:02;;;;;;;5.60;5.18;;;;;;;;;;5095364;28;20470;-64
2021/08/21 01:23:28;;;;;;;5.03;4.63;;;;;;;;;;5095216;28;20086;-64
2021/08/21 01:26:03;;;;;;;4.65;4.25;;;;;;;;;;5095342;28;20393;-63
2021/08/21 01:28:39;;;;;;;6.03;3.88;;;;;;;;;;5095000;28;20096;-63
2021/08/21 01:31:24;;;;;;;5.22;4.72;;;;;;;;;;5113782;28;20046;-64
2021/08/21 01:33:49;;;;;;;5.32;4.82;;;;;;;;;;5113798;28;20466;-63
2021/08/21 01:36:16;;;;;;;5.65;5.25;;;;;;;;;;5099441;28;20031;-63
2021/08/21 01:39:00;;;;;;;4.68;4.03;;;;;;;;;;5117993;28;20042;-63
2021/08/21 01:41:42;;;;;;;4.28;3.88;;;;;;;;;;5099445;28;20100;-63
2021/08/21 01:44:10;;;;;;;5.20;3.75;;;;;;;;;;5099216;28;20101;-63
2021/08/21 01:46:35;;;;;;;4.68;4.28;;;;;;;;;;5099330;28;20123;-63
2021/08/21 01:49:02;;;;;;;5.57;4.25;;;;;;;;;;5099306;28;20047;-63
2021/08/21 01:51:30;;;;;;;6.20;5.07;;;;;;;;;;5099388;28;20028;-63
2021/08/21 01:53:56;;;;;;;5.65;4.95;;;;;;;;;;5099062;28;20035;-63
2021/08/21 01:56:26;;;;;;;5.45;4.95;;;;;;;;;;5099050;28;20031;-63
2021/08/21 01:58:58;;;;;;;6.20;4.22;;;;;;;;;;5099067;28;20401;-63
2021/08/21 02:01:31;;;;;;;5.13;4.72;;;;;;;;;;5099130;28;20043;-63
2021/08/21 02:04:20;;;;;;;5.43;4.95;;;;;;;;;;5108735;28;20602;-63
2021/08/21 02:06:46;;;;;;;5.45;5.00;;;;;;;;;;5082175;28;20031;-63
2021/08/21 02:09:16;;;;;;;7.32;5.13;;;;;;;;;;5098451;28;20015;-63
2021/08/21 02:11:42;;;;;;;5.63;4.75;;;;;;;;;;5099018;28;20414;-63
2021/08/21 02:14:08;;;;;;;4.70;3.85;;;;;;;;;;5098729;28;20055;-63
2021/08/21 02:16:34;;;;;;;4.70;4.30;;;;;;;;;;5098829;28;20401;-63
2021/08/21 02:18:59;;;;;;;4.35;3.90;;;;;;;;;;5098832;28;20032;-63
2021/08/21 02:21:49;;;;;;;4.82;4.43;;;;;;;;;;5098860;28;20462;-63
2021/08/21 02:24:16;;;;;;;4.78;4.38;;;;;;;;;;5098209;28;20032;-63
2021/08/21 02:26:43;;;;;;;5.22;4.38;;;;;;;;;;5098474;28;20481;-63
2021/08/21 02:29:12;;;;;;;4.07;3.88;;;;;;;;;;5098312;28;20120;-62
2021/08/21 02:31:38;;;;;;;4.18;3.83;;;;;;;;;;5116986;28;20027;-63
2021/08/21 02:34:04;;;;;;;4.47;4.18;;;;;;;;;;5098662;28;20093;-63
2021/08/21 02:36:29;;;;;;;4.28;3.97;;;;;;;;;;5098443;28;20442;-63
2021/08/21 02:38:56;;;;;;;4.90;4.10;;;;;;;;;;5081615;28;20035;-63
2021/08/21 02:41:21;;;;;;;4.85;4.45;;;;;;;;;;5098132;28;20028;-63
2021/08/21 02:43:47;;;;;;;4.70;4.35;;;;;;;;;;5116432;28;20039;-63
2021/08/21 02:46:12;;;;;;;4.30;3.92;;;;;;;;;;5114985;28;20053;-63
2021/08/21 02:48:37;;;;;;;7.22;4.40;;;;;;;;;;5116590;28;20043;-67
2021/08/21 02:51:03;;;;;;;5.32;3.78;;;;;;;;;;5097921;28;20077;-68
2021/08/21 02:53:29;;;;;;;4.38;4.03;;;;;;;;;;5097968;28;20042;-67
2021/08/21 02:55:55;;;;;;;4.15;3.60;;;;;;;;;;5098132;28;20393;-69
2021/08/21 02:58:20;;;;;;;4.13;3.83;;;;;;;;;;5097822;28;20043;-68
2021/08/21 03:00:46;;;;;;;3.78;3.47;;;;;;;;;;5097796;28;20020;-68
2021/08/21 03:03:14;;;;;;;3.65;3.40;;;;;;;;;;5080917;28;20426;-68
2021/08/21 03:05:45;;;;;;;3.90;3.60;;;;;;;;;;5097491;28;20431;-68
2021/08/21 03:08:11;;;;;;;3.53;3.30;;;;;;;;;;5097627;28;20036;-68
2021/08/21 03:10:44;;;;;;;4.13;3.83;;;;;;;;;;5097661;28;20032;-66
2021/08/21 03:13:09;;;;;;;3.75;3.45;;;;;;;;;;5080585;28;20089;-67
2021/08/21 03:15:35;;;;;;;3.63;3.33;;;;;;;;;;5097758;28;20073;-66
2021/08/21 03:18:01;;;;;;;3.63;3.42;;;;;;;;;;5115764;28;20088;-65
2021/08/21 03:20:27;;;;;;;6.65;5.95;;;;;;;;;;5097475;28;20474;-66
2021/08/21 03:22:53;;;;;;;7.80;5.43;;;;;;;;;;5097180;28;20035;-66
2021/08/21 03:25:23;;;;;;;9.43;7.15;;;;;;;;;;5097288;28;20437;-67
2021/08/21 03:27:50;;;;;;;10.02;7.63;;;;;;;;;;5096934;28;20091;-66
2021/08/21 03:30:15;;;;;;;8.18;6.78;;;;;;;;;;5115746;28;20036;-66
2021/08/21 03:32:42;;;;;;;9.85;7.70;;;;;;;;;;5097293;28;20477;-66
2021/08/21 03:35:08;;;;;;;10.23;7.88;;;;;;;;;;5080567;28;20051;-66
2021/08/21 03:37:34;;;;;;;12.40;7.45;;;;;;;;;;5096906;28;20031;-66
2021/08/21 03:40:00;;;;;;;8.48;6.70;;;;;;;;;;5097013;28;20103;-66
2021/08/21 03:42:25;;;;;;;6.65;6.00;;;;;;;;;;5096866;28;20042;-67
2021/08/21 03:44:58;;;;;;;7.93;6.45;;;;;;;;;;5096974;28;20031;-67
2021/08/21 03:47:24;;;;;;;8.75;6.90;;;;;;;;;;5096842;28;20118;-67
2021/08/21 03:49:50;;;;;;;6.50;5.90;;;;;;;;;;5096823;28;20053;-66
2021/08/21 03:52:17;;;;;;;6.43;5.80;;;;;;;;;;5096687;28;20495;-67
2021/08/21 03:54:43;;;;;;;8.55;6.43;;;;;;;;;;5096596;28;20110;-67
2021/08/21 03:57:09;;;;;;;9.02;6.50;;;;;;;;;;5096052;28;20374;-67
2021/08/21 03:59:35;;;;;;;8.85;6.05;;;;;;;;;;5096841;28;20430;-68
2021/08/21 04:02:01;;;;;;;7.75;5.70;;;;;;;;;;5096705;28;20123;-68
2021/08/21 04:04:31;;;;;;;6.95;6.25;;;;;;;;;;5096440;28;20504;-68
2021/08/21 04:07:00;;;;;;;9.63;6.72;;;;;;;;;;5096634;28;20036;-68
2021/08/21 04:09:31;;;;;;;8.05;6.40;;;;;;;;;;5096440;28;20507;-69
2021/08/21 04:11:59;;;;;;;8.98;6.57;;;;;;;;;;5096410;28;20028;-68
2021/08/21 04:14:25;;;;;;;8.85;6.53;;;;;;;;;;5096432;28;20433;-68
2021/08/21 04:16:51;;;;;;;9.07;6.65;;;;;;;;;;5114610;28;20087;-68
2021/08/21 04:19:18;;;;;;;9.32;6.30;;;;;;;;;;5095991;28;20050;-68
2021/08/21 04:21:46;;;;;;;10.27;5.93;;;;;;;;;;5096779;28;20470;-67
2021/08/21 04:24:34;;;;;;;9.77;6.45;;;;;;;;;;5106213;28;20028;-68
2021/08/21 04:27:02;;;;;;;9.15;6.40;;;;;;;;;;5096117;28;20032;-68
2021/08/21 04:29:31;;;;;;;12.40;6.97;;;;;;;;;;5096126;28;20035;-68
2021/08/21 04:31:57;;;;;;;9.73;6.82;;;;;;;;;;5079102;28;20031;-67
2021/08/21 04:34:23;;;;;;;11.27;6.75;;;;;;;;;;5096017;28;20046;-63
2021/08/21 04:36:49;;;;;;;10.27;7.00;;;;;;;;;;5095910;28;20035;-63
2021/08/21 04:39:19;;;;;;;9.38;6.53;;;;;;;;;;5095877;28;20114;-63
2021/08/21 04:41:47;;;;;;;10.52;6.68;;;;;;;;;;5079330;28;20111;-63
2021/08/21 04:44:12;;;;;;;8.07;6.10;;;;;;;;;;5095840;28;20028;-63
2021/08/21 04:46:38;;;;;;;8.75;6.15;;;;;;;;;;5096076;28;20067;-63
2021/08/21 04:49:04;;;;;;;8.43;5.68;;;;;;;;;;5095996;28;20030;-63
2021/08/21 04:51:31;;;;;;;8.10;6.40;;;;;;;;;;5095912;28;20079;-63
2021/08/21 04:53:58;;;;;;;7.72;5.97;;;;;;;;;;5095790;28;20028;-63
2021/08/21 04:56:24;;;;;;;10.77;6.18;;;;;;;;;;5095743;28;20372;-63
2021/08/21 04:59:08;;;;;;;7.97;5.53;;;;;;;;;;5114482;28;20030;-62
2021/08/21 05:01:34;;;;;;;9.45;6.07;;;;;;;;;;5079038;28;20035;-62
2021/08/21 05:04:00;;;;;;;7.43;5.78;;;;;;;;;;5095663;28;20583;-62
2021/08/21 05:06:29;;;;;;;8.10;5.55;;;;;;;;;;5095417;28;20073;-63
2021/08/21 05:08:54;;;;;;;7.85;5.88;;;;;;;;;;5094867;28;20422;-63
2021/08/21 05:11:20;;;;;;;9.80;5.60;;;;;;;;;;5113756;28;20408;-63
2021/08/21 05:13:46;;;;;;;9.82;5.80;;;;;;;;;;5095666;28;20389;-63
2021/08/21 05:16:11;;;;;;;9.02;5.85;;;;;;;;;;5095595;28;20036;-63
2021/08/21 05:18:53;;;;;;;7.25;5.35;;;;;;;;;;5095691;28;20465;-63
2021/08/21 05:21:30;;;;;;;7.18;5.97;;;;;;;;;;5095702;28;20035;-63
2021/08/21 05:23:57;;;;;;;7.72;5.55;;;;;;;;;;5095716;28;20039;-63
2021/08/21 05:26:23;;;;;;;6.20;5.25;;;;;;;;;;5113834;28;20020;-63
2021/08/21 05:28:49;;;;;;;6.43;5.63;;;;;;;;;;5113373;28;20063;-63
2021/08/21 05:31:14;;;;;;;6.80;5.55;;;;;;;;;;5113535;28;20067;-63
2021/08/21 05:33:40;;;;;;;6.28;5.57;;;;;;;;;;5113837;28;20040;-63
2021/08/21 05:36:05;;;;;;;6.20;5.55;;;;;;;;;;5095180;28;20028;-63
2021/08/21 05:38:31;;;;;;;6.85;5.93;;;;;;;;;;5095527;28;20039;-63
2021/08/21 05:40:56;;;;;;;8.32;5.35;;;;;;;;;;5113796;28;20027;-63
2021/08/21 05:43:22;;;;;;;6.95;5.93;;;;;;;;;;5113200;28;20039;-63
2021/08/21 05:45:47;;;;;;;6.88;5.82;;;;;;;;;;5113722;28;20016;-64
2021/08/21 05:48:13;;;;;;;6.28;5.32;;;;;;;;;;5106320;28;20040;-63
2021/08/21 05:50:38;;;;;;;8.52;5.97;;;;;;;;;;5092965;28;20032;-63
2021/08/21 05:53:04;;;;;;;7.45;6.35;;;;;;;;;;5093195;28;20075;-63
2021/08/21 05:55:30;;;;;;;9.57;6.30;;;;;;;;;;5074751;28;20066;-63
2021/08/21 05:58:03;;;;;;;8.63;6.45;;;;;;;;;;5074935;28;20090;-63
2021/08/21 06:00:30;;;;;;;9.63;5.80;;;;;;;;;;5093008;28;20054;-63
2021/08/21 06:02:55;;;;;;;9.65;5.55;;;;;;;;;;5074845;28;20024;-63
2021/08/21 06:05:21;;;;;;;8.02;5.70;;;;;;;;;;5092848;28;20119;-63
2021/08/21 06:07:50;;;;;;;9.70;6.60;;;;;;;;;;5074933;28;20024;-63
2021/08/21 06:10:28;;;;;;;7.20;5.57;;;;;;;;;;5075158;28;20038;-63
2021/08/21 06:12:54;;;;;;;8.50;6.43;;;;;;;;;;5074697;28;20119;-63
2021/08/21 06:15:20;;;;;;;8.27;6.10;;;;;;;;;;5092914;28;20471;-63
2021/08/21 06:17:46;;;;;;;6.63;5.97;;;;;;;;;;5092846;28;20036;-63
2021/08/21 06:20:11;;;;;;;7.10;6.45;;;;;;;;;;5093443;28;20107;-64
2021/08/21 06:22:37;;;;;;;7.57;6.75;;;;;;;;;;5096468;28;20032;-63
2021/08/21 06:25:03;;;;;;;8.93;6.70;;;;;;;;;;5096363;28;20070;-63
2021/08/21 06:27:28;;;;;;;8.15;7.07;;;;;;;;;;5096064;28;20059;-64
2021/08/21 06:29:54;;;;;;;10.82;7.15;;;;;;;;;;5096447;28;20039;-63
2021/08/21 06:32:19;;;;;;;10.60;6.95;;;;;;;;;;5096250;28;20028;-63
2021/08/21 06:34:44;;;;;;;8.68;6.85;;;;;;;;;;5078036;28;20115;-63
2021/08/21 06:37:10;;;;;;;8.90;6.95;;;;;;;;;;5098547;28;20036;-63
2021/08/21 06:39:35;;;;;;;10.38;7.35;;;;;;;;;;5095825;28;20028;-64
2021/08/21 06:42:01;;;;;;;9.77;7.72;;;;;;;;;;5077530;28;20482;-63
2021/08/21 06:44:29;;;;;;;9.57;7.47;;;;;;;;;;5077981;28;20024;-64
2021/08/21 06:46:55;;;;;;;10.05;7.68;;;;;;;;;;5077645;28;20125;-64
2021/08/21 06:49:20;;;;;;;9.60;7.68;;;;;;;;;;5095768;28;20091;-63
2021/08/21 06:51:46;;;;;;;7.97;6.88;;;;;;;;;;5095796;28;20443;-63
2021/08/21 06:54:11;;;;;;;8.55;6.90;;;;;;;;;;5096080;28;20106;-63
2021/08/21 06:56:37;;;;;;;7.97;7.18;;;;;;;;;;5095703;28;20437;-63
2021/08/21 06:59:02;;;;;;;8.93;6.20;;;;;;;;;;5095746;28;20030;-65
2021/08/21 07:01:29;;;;;;;6.55;5.85;;;;;;;;;;5095521;28;20032;-63
2021/08/21 07:03:54;;;;;;;7.05;6.10;;;;;;;;;;5095907;28;20028;-63
2021/08/21 07:06:20;;;;;;;7.28;6.53;;;;;;;;;;5095853;28;20123;-63
2021/08/21 07:08:45;;;;;;;7.00;6.30;;;;;;;;;;5095704;28;20405;-63
2021/08/21 07:11:10;;;;;;;8.57;6.68;;;;;;;;;;5095249;28;20609;-63
2021/08/21 07:13:36;;;;;;;8.80;6.90;;;;;;;;;;5095171;28;20020;-63
2021/08/21 07:16:02;;;;;;;7.13;5.75;;;;;;;;;;5095312;28;20525;-63
2021/08/21 07:18:27;;;;;;;6.78;6.25;;;;;;;;;;5095408;28;20043;-63
2021/08/21 07:20:53;;;;;;;7.13;6.03;;;;;;;;;;5095426;28;20028;-63
2021/08/21 07:23:18;;;;;;;6.28;5.70;;;;;;;;;;5077290;28;20108;-63
2021/08/21 07:25:44;;;;;;;5.70;5.20;;;;;;;;;;5094983;28;20441;-63
2021/08/21 07:28:10;;;;;;;6.05;5.55;;;;;;;;;;5076481;28;20494;-63
2021/08/21 07:30:37;;;;;;;6.50;5.43;;;;;;;;;;5095071;28;20165;-63
2021/08/21 07:33:02;;;;;;;6.28;5.70;;;;;;;;;;5094504;28;20040;-63
2021/08/21 07:35:28;;;;;;;6.35;5.75;;;;;;;;;;5094368;28;20393;-66
2021/08/21 07:37:53;;;;;;;8.85;5.40;;;;;;;;;;5094920;28;20032;-66
2021/08/21 07:40:19;;;;;;;5.15;4.55;;;;;;;;;;5094957;28;20047;-66
2021/08/21 07:42:44;;;;;;;5.22;4.82;;;;;;;;;;5094848;28;20032;-65
2021/08/21 07:45:10;;;;;;;5.63;5.18;;;;;;;;;;5094694;28;20134;-66
2021/08/21 07:47:37;;;;;;;6.03;5.22;;;;;;;;;;5076595;28;20102;-66
2021/08/21 07:50:03;;;;;;;5.68;5.20;;;;;;;;;;5076581;28;20441;-66
2021/08/21 07:52:29;;;;;;;6.32;5.70;;;;;;;;;;5094916;28;20032;-66
2021/08/21 07:54:56;;;;;;;5.68;5.28;;;;;;;;;;5059778;28;20090;-66
2021/08/21 07:57:21;;;;;;;5.32;4.90;;;;;;;;;;5094437;28;20119;-66
2021/08/21 07:59:47;;;;;;;5.00;4.60;;;;;;;;;;5094171;28;20097;-66
2021/08/21 08:02:13;;;;;;;6.32;5.53;;;;;;;;;;5094478;28;20058;-60
2021/08/21 08:04:38;;;;;;;5.88;5.38;;;;;;;;;;5094767;28;20036;-66
2021/08/21 08:07:04;;;;;;;5.40;4.90;;;;;;;;;;5094636;28;20027;-65
2021/08/21 08:09:29;;;;;;;5.50;4.97;;;;;;;;;;5094229;28;20126;-66
2021/08/21 08:11:55;;;;;;;4.90;4.50;;;;;;;;;;5094425;28;20114;-66
2021/08/21 08:14:20;;;;;;;4.95;4.53;;;;;;;;;;5094543;28;20067;-66
2021/08/21 08:16:46;;;;;;;4.47;4.18;;;;;;;;;;5094505;28;20036;-66
2021/08/21 08:19:12;;;;;;;6.93;5.60;;;;;;;;;;5094213;28;20040;-66
2021/08/21 08:21:37;;;;;;;5.80;5.30;;;;;;;;;;5094428;28;20082;-66
2021/08/21 08:24:04;;;;;;;11.23;5.00;;;;;;;;;;5094267;28;20035;-67
2021/08/21 08:26:29;;;;;;;6.00;5.47;;;;;;;;;;5093963;28;20028;-67
2021/08/21 08:28:55;;;;;;;6.10;5.57;;;;;;;;;;5075824;28;20048;-67
2021/08/21 08:31:21;;;;;;;7.13;5.05;;;;;;;;;;5093538;28;20115;-68
2021/08/21 08:33:46;;;;;;;6.03;5.53;;;;;;;;;;5094147;28;20115;-67
2021/08/21 08:36:11;;;;;;;5.38;4.90;;;;;;;;;;5094017;28;20028;-68
2021/08/21 08:38:37;;;;;;;5.82;5.35;;;;;;;;;;5094085;28;20040;-67
2021/08/21 08:41:03;;;;;;;4.40;4.10;;;;;;;;;;5093959;28;20028;-67
2021/08/21 08:43:28;;;;;;;4.60;4.20;;;;;;;;;;5093103;28;20039;-67
2021/08/21 08:45:54;;;;;;;4.90;4.47;;;;;;;;;;5093361;28;20358;-68
2021/08/21 08:48:20;;;;;;;5.20;4.72;;;;;;;;;;5093645;28;20036;-68
2021/08/21 08:50:47;;;;;;;4.85;4.45;;;;;;;;;;5093773;28;20431;-68
2021/08/21 08:53:12;;;;;;;5.47;4.97;;;;;;;;;;5075781;28;20032;-67
2021/08/21 08:55:40;;;;;;;4.72;4.43;;;;;;;;;;5093871;28;20069;-67
2021/08/21 08:58:06;;;;;;;4.50;4.10;;;;;;;;;;5075869;28;20039;-68
2021/08/21 09:00:31;;;;;;;5.03;4.63;;;;;;;;;;5094048;28;20378;-68
2021/08/21 09:02:58;;;;;;;4.80;4.45;;;;;;;;;;5102639;28;20508;-68
2021/08/21 09:05:25;;;;;;;7.18;5.43;;;;;;;;;;5094832;28;20063;-69
2021/08/21 09:07:52;;;;;;;7.45;5.15;;;;;;;;;;5114059;28;20473;-68
2021/08/21 09:10:24;;;;;;;5.97;5.47;;;;;;;;;;5113913;28;20085;-68
2021/08/21 09:13:08;;;;;;;5.18;4.68;;;;;;;;;;5114157;28;20035;-69
2021/08/21 09:15:36;;;;;;;5.53;5.03;;;;;;;;;;5095744;28;20039;-68
2021/08/21 09:18:06;;;;;;;4.75;4.43;;;;;;;;;;5113586;28;20058;-68
2021/08/21 09:20:50;;;;;;;4.75;4.45;;;;;;;;;;5113654;28;20038;-68
2021/08/21 09:23:17;;;;;;;4.97;4.57;;;;;;;;;;5113686;28;20061;-68
2021/08/21 09:25:43;;;;;;;5.30;4.60;;;;;;;;;;5113716;28;20032;-68
2021/08/21 09:28:19;;;;;;;7.28;4.80;;;;;;;;;;5113129;28;20614;-68
2021/08/21 09:30:46;;;;;;;5.15;4.70;;;;;;;;;;5113574;28;20124;-68
2021/08/21 09:33:12;;;;;;;5.07;4.57;;;;;;;;;;5113628;28;20036;-68
2021/08/21 09:35:38;;;;;;;5.60;5.10;;;;;;;;;;5095292;28;20063;-68
2021/08/21 09:38:03;;;;;;;5.47;5.05;;;;;;;;;;5113680;28;20032;-68
2021/08/21 09:40:30;;;;;;;5.93;5.43;;;;;;;;;;5095811;28;20138;-67
2021/08/21 09:42:56;;;;;;;5.32;4.97;;;;;;;;;;5113345;28;20038;-68
2021/08/21 09:45:23;;;;;;;6.07;5.35;;;;;;;;;;5113093;28;20032;-68
2021/08/21 09:47:48;;;;;;;5.18;4.75;;;;;;;;;;5113543;28;20110;-67
2021/08/21 09:50:15;;;;;;;5.32;4.82;;;;;;;;;;5113612;28;20131;-67
2021/08/21 09:52:41;;;;;;;5.50;5.10;;;;;;;;;;5113267;28;20031;-67
2021/08/21 09:55:08;;;;;;;5.18;4.68;;;;;;;;;;5113827;28;20028;-68
2021/08/21 09:57:34;;;;;;;5.35;4.95;;;;;;;;;;5117206;28;20362;-68
2021/08/21 10:00:00;;;;;;;5.55;5.05;;;;;;;;;;5117280;28;20047;-68
2021/08/21 10:02:29;;;;;;;5.38;4.90;;;;;;;;;;5117122;28;20446;-69
2021/08/21 10:04:55;;;;;;;5.57;5.10;;;;;;;;;;5117114;28;20032;-69
2021/08/21 10:07:24;;;;;;;5.03;4.63;;;;;;;;;;5116824;28;20466;-67
2021/08/21 10:09:52;;;;;;;4.30;4.00;;;;;;;;;;5117004;28;20118;-69
2021/08/21 10:12:20;;;;;;;5.20;4.80;;;;;;;;;;5098900;28;20416;-70
2021/08/21 10:14:46;;;;;;;4.38;4.03;;;;;;;;;;5117064;28;20436;-73
2021/08/21 10:17:14;;;;;;;5.43;4.93;;;;;;;;;;5098976;28;20126;-72
2021/08/21 10:19:40;;;;;;;5.35;4.95;;;;;;;;;;5098139;28;20051;-68
2021/08/21 10:22:08;;;;;;;5.60;5.10;;;;;;;;;;5116813;28;20027;-68
2021/08/21 10:24:36;;;;;;;4.38;4.07;;;;;;;;;;5116801;28;20040;-67
2021/08/21 10:27:09;;;;;;;4.78;4.38;;;;;;;;;;5116698;28;20039;-67
2021/08/21 10:29:35;;;;;;;4.65;4.25;;;;;;;;;;5116995;28;20125;-69
2021/08/21 10:32:01;;;;;;;4.68;4.38;;;;;;;;;;5098892;28;20114;-69
2021/08/21 10:34:47;;;;;;;4.82;4.43;;;;;;;;;;5098613;28;20032;-70
2021/08/21 10:37:29;;;;;;;5.18;4.78;;;;;;;;;;5116852;28;20035;-66
2021/08/21 10:39:55;;;;;;;4.95;4.40;;;;;;;;;;5116910;28;20032;-69
2021/08/21 10:42:24;;;;;;;4.55;4.13;;;;;;;;;;5116799;28;20102;-69
2021/08/21 10:44:52;;;;;;;4.55;4.15;;;;;;;;;;5098686;28;20462;-69
2021/08/21 10:47:26;;;;;;;4.50;4.10;;;;;;;;;;5098434;28;20043;-69
2021/08/21 10:49:52;;;;;;;4.43;4.03;;;;;;;;;;5116684;28;20088;-69
2021/08/21 10:52:35;;;;;;;4.63;4.28;;;;;;;;;;5116361;28;20039;-62
2021/08/21 10:55:12;;;;;;;4.00;3.80;;;;;;;;;;5116361;28;20051;-62
2021/08/21 10:57:53;;;;;;;4.05;3.75;;;;;;;;;;5116482;28;20031;-62
2021/08/21 11:00:37;;;;;;;4.28;3.97;;;;;;;;;;5116595;28;20036;-65
2021/08/21 11:03:03;;;;;;;3.83;3.47;;;;;;;;;;5097835;28;20474;-65
2021/08/21 11:05:47;;;;;;;7.50;4.28;;;;;;;;;;5109714;28;20039;-65
2021/08/21 11:08:13;;;;;;;3.63;3.40;;;;;;;;;;5113026;28;20035;-65
2021/08/21 11:10:38;;;;;;;3.80;3.50;;;;;;;;;;5113888;28;20035;-65
2021/08/21 11:13:06;;;;;;;3.38;3.15;;;;;;;;;;5114088;28;20078;-65
2021/08/21 11:15:34;;;;;;;3.25;3.05;;;;;;;;;;5113958;28;20035;-65
2021/08/21 11:18:02;;;;;;;3.40;3.10;;;;;;;;;;5095663;28;20039;-65
2021/08/21 11:20:32;;;;;;;3.75;3.50;;;;;;;;;;5113662;28;20046;-65
2021/08/21 11:23:07;;;;;;;3.40;3.20;;;;;;;;;;5113878;28;20770;-63
2021/08/21 11:25:35;;;;;;;3.65;3.35;;;;;;;;;;5112617;28;20089;-64
2021/08/21 11:28:10;;;;;;;4.18;3.78;;;;;;;;;;5112273;28;20051;-62
2021/08/21 11:30:38;;;;;;;3.60;3.40;;;;;;;;;;5112606;28;20040;-62
2021/08/21 11:33:03;;;;;;;3.47;3.25;;;;;;;;;;5112589;28;20036;-62
2021/08/21 11:35:49;;;;;;;4.03;3.70;;;;;;;;;;5112328;28;20385;-62
2021/08/21 11:38:17;;;;;;;2.88;2.67;;;;;;;;;;5112314;28;20133;-61
2021/08/21 11:40:46;;;;;;;3.17;2.97;;;;;;;;;;5112290;28;20035;-62
2021/08/21 11:43:31;;;;;;;3.10;2.90;;;;;;;;;;5111986;28;20050;-61
2021/08/21 11:45:58;;;;;;;3.50;3.30;;;;;;;;;;5112340;28;20039;-62
2021/08/21 11:48:27;;;;;;;3.20;3.00;;;;;;;;;;5111820;28;20073;-59
2021/08/21 11:50:53;;;;;;;3.38;3.15;;;;;;;;;;5093177;28;20042;-64
2021/08/21 11:53:20;;;;;;;2.95;2.85;;;;;;;;;;5112294;28;20114;-65
2021/08/21 11:55:45;;;;;;;3.30;3.00;;;;;;;;;;5112095;28;20043;-72
2021/08/21 11:58:11;;;;;;;3.08;2.88;;;;;;;;;;5111739;28;20040;-72
2021/08/21 12:00:40;;;;;;;4.00;3.15;;;;;;;;;;5111794;28;20035;-61
2021/08/21 12:03:08;;;;;;;3.00;2.80;;;;;;;;;;5111473;28;20218;-60
2021/08/21 12:05:38;;;;;;;3.38;3.00;;;;;;;;;;5111499;28;20448;-61
2021/08/21 12:08:17;;;;;;;2.80;2.60;;;;;;;;;;5092069;28;20118;-61
2021/08/21 12:10:44;;;;;;;2.70;2.50;;;;;;;;;;5108250;28;20078;-60
2021/08/21 12:13:10;;;;;;;2.85;2.65;;;;;;;;;;5111612;28;20300;-61
2021/08/21 12:15:35;;;;;;;2.92;2.70;;;;;;;;;;5092871;28;20074;-60
2021/08/21 12:18:01;;;;;;;2.90;2.70;;;;;;;;;;5111033;28;20486;-61
2021/08/21 12:20:27;;;;;;;3.25;2.95;;;;;;;;;;5111013;28;20046;-61
2021/08/21 12:22:52;;;;;;;2.90;2.70;;;;;;;;;;5110619;28;20035;-61
2021/08/21 12:25:18;;;;;;;2.78;2.60;;;;;;;;;;5110284;28;20063;-61
2021/08/21 12:27:43;;;;;;;2.55;2.42;;;;;;;;;;5110400;28;20039;-61
2021/08/21 12:30:13;;;;;;;2.90;2.70;;;;;;;;;;5110592;28;20050;-61
2021/08/21 12:32:39;;;;;;;2.85;2.67;;;;;;;;;;5075758;28;20042;-60
2021/08/21 12:35:12;;;;;;;2.60;2.40;;;;;;;;;;5110974;28;20485;-61
2021/08/21 12:37:38;;;;;;;3.03;2.80;;;;;;;;;;5110980;28;20036;-61
2021/08/21 12:40:09;;;;;;;2.78;2.58;;;;;;;;;;5110585;28;20035;-61
2021/08/21 12:42:35;;;;;;;2.80;2.47;;;;;;;;;;5110907;28;20470;-61
2021/08/21 12:45:16;;;;;;;2.70;2.60;;;;;;;;;;5110766;28;20054;-61
2021/08/21 12:47:41;;;;;;;;;;;;;;;;;;5111407;28;20093;-61
2021/08/21 12:50:10;;;;;;;2.50;2.40;;;;;;;;;;5110602;28;19911;-61
2021/08/21 12:52:36;;;;;;;2.58;2.42;;;;;;;;;;5110844;28;20070;-61
2021/08/21 12:55:01;;;;;;;3.28;2.55;;;;;;;;;;5110605;28;20063;-61
2021/08/21 12:57:32;;;;;;;2.72;2.58;;;;;;;;;;5110440;28;20043;-61
2021/08/21 12:59:57;;;;;;;;;;;;;;;;;;5111242;28;20063;-61
2021/08/21 13:02:23;;;;;;;2.70;2.50;;;;;;;;;;5092197;28;20540;-61
2021/08/21 13:04:56;;;;;;;2.72;2.22;;;;;;;;;;5109990;28;20293;-61
2021/08/21 13:07:21;;;;;;;2.50;2.40;;;;;;;;;;5110619;28;20075;-61
2021/08/21 13:09:47;;;;;;;2.97;2.70;;;;;;;;;;5110675;28;20065;-61
2021/08/21 13:12:12;;;;;;;2.70;2.50;;;;;;;;;;5110570;28;20034;-60
2021/08/21 13:14:38;;;;;;;2.65;2.45;;;;;;;;;;5110352;28;20832;-60
2021/08/21 13:17:04;;;;;;;2.22;2.13;;;;;;;;;;5110592;28;20089;-60
2021/08/21 13:19:30;;;;;;;2.80;2.60;;;;;;;;;;5109458;28;20177;-67
2021/08/21 13:21:55;;;;;;;2.10;2.00;;;;;;;;;;5110077;28;20446;-67
2021/08/21 13:24:21;;;;;;;2.83;2.60;;;;;;;;;;5109823;28;20043;-67
2021/08/21 13:26:46;;;;;;;2.90;2.45;;;;;;;;;;5110174;28;20044;-67
2021/08/21 13:29:12;;;;;;;2.47;2.38;;;;;;;;;;5109691;28;20097;-67
2021/08/21 13:31:37;;;;;;;2.45;2.35;;;;;;;;;;5113332;28;20076;-67
2021/08/21 13:34:08;;;;;;;2.05;1.95;;;;;;;;;;5113711;28;20187;-68
2021/08/21 13:36:38;;;;;;;2.00;1.90;;;;;;;;;;5094577;28;20455;-67
2021/08/21 13:39:04;;;;;;;2.03;1.83;;;;;;;;;;5078078;28;20469;-67
2021/08/21 13:41:30;;;;;;;2.15;2.05;;;;;;;;;;5113775;28;20034;-67
2021/08/21 13:43:55;;;;;;;2.50;2.40;;;;;;;;;;5095134;28;20036;-67
2021/08/21 13:46:21;;;;;;;2.47;2.28;;;;;;;;;;5113864;28;20101;-67
2021/08/21 13:48:46;;;;;;;2.75;2.35;;;;;;;;;;5113894;28;20089;-67
2021/08/21 13:51:12;;;;;;;2.63;2.53;;;;;;;;;;5114000;28;20043;-67
2021/08/21 13:53:37;;;;;;;2.47;2.30;;;;;;;;;;5113921;28;20050;-67
2021/08/21 13:56:03;;;;;;;2.50;2.33;;;;;;;;;;5113345;28;20024;-61
2021/08/21 13:58:30;;;;;;;2.20;2.10;;;;;;;;;;5114500;28;20058;-60
2021/08/21 14:00:55;;;;;;;2.55;1.80;;;;;;;;;;5095365;28;20034;-61
2021/08/21 14:03:21;;;;;;;2.05;1.95;;;;;;;;;;5114073;28;20043;-61
2021/08/21 14:05:46;;;;;;;2.15;2.05;;;;;;;;;;5113610;28;20038;-61
2021/08/21 14:08:12;;;;;;;2.40;2.20;;;;;;;;;;5113675;28;20043;-61
2021/08/21 14:10:37;;;;;;;4.10;2.10;;;;;;;;;;5095569;28;20473;-61
2021/08/21 14:13:03;;;;;;;2.28;2.08;;;;;;;;;;5113982;28;20079;-61
2021/08/21 14:15:28;;;;;;;2.67;2.08;;;;;;;;;;5113444;28;20036;-61
2021/08/21 14:17:53;;;;;;;2.30;2.10;;;;;;;;;;5113244;28;20059;-61
2021/08/21 14:20:19;;;;;;;2.08;1.98;;;;;;;;;;5113326;28;20489;-61
2021/08/21 14:22:45;;;;;;;2.67;1.95;;;;;;;;;;5113362;28;20039;-61
2021/08/21 14:25:10;;;;;;;2.75;2.10;;;;;;;;;;5113198;28;20572;-61
2021/08/21 14:27:36;;;;;;;1.98;1.88;;;;;;;;;;5113342;28;20031;-61
2021/08/21 14:30:02;;;;;;;2.97;2.38;;;;;;;;;;5102598;28;20093;-61
2021/08/21 14:32:28;;;;;;;2.22;2.00;;;;;;;;;;5074713;28;20375;-61
2021/08/21 14:34:53;;;;;;;2.13;2.00;;;;;;;;;;5092573;28;20032;-61
2021/08/21 14:37:19;;;;;;;2.25;2.05;;;;;;;;;;5092713;28;20054;-61
2021/08/21 14:39:44;;;;;;;4.57;3.30;;;;;;;;;;5095435;28;20046;-61
2021/08/21 14:42:10;;;;;;;2.70;2.47;;;;;;;;;;5095572;28;20114;-61
2021/08/21 14:44:36;;;;;;;2.80;2.60;;;;;;;;;;5102019;28;20028;-61